KCCU

Red Cliff Pass Airport

Copper Mountain, Colorado, USA
METAR KCCU 201712Z AUTO 04004KT 10SM CLR 05/M10 A3068 RMK AO2
Observed Flight Rules
Oct-20 @ 17:12 UTC (24 minutes ago) Visual Flight Rules
Wind Visibility Clouds
40° at 4 knots 10 miles
  • Clear skies
Temperatures Readings
Current 5°C / 41°F
Dewpoint -10°C / 14°F
Humidity 33%
Altimeter 30.68" Hg
Pressure 1039 hPa
Elevation 3680
METAR KCCU 201712Z AUTO 04004KT 10SM CLR 05/M10 A3068 RMK AO2
Observed Flight Rules
Oct-20 @ 17:12 UTC
(24 minutes ago)
VFR
Wind Visibility
40° at 4 knots 10 miles
Clouds
  • Clear skies
Temperature Dewpoint
5°C / 41°F -10°C / 14°F
Humidity Altimeter Pressure
33% 30.68" Hg 1039 hPa